sensor_id;sensor_type;location;lat;lon;timestamp;pressure;altitude;pressure_sealevel;temperature;humidity
4123;BME280;2075;51.062;6.920;2023-01-23T00:00:32;13376.31;;;-144.48;100.00
4123;BME280;2075;51.062;6.920;2023-01-23T00:03:18;13376.31;;;-144.48;100.00
4123;BME280;2075;51.062;6.920;2023-01-23T00:06:07;13122.41;;;-144.48;100.00
4123;BME280;2075;51.062;6.920;2023-01-23T00:08:52;12868.53;;;-144.48;100.00
4123;BME280;2075;51.062;6.920;2023-01-23T00:11:39;13122.41;;;-144.48;100.00
4123;BME280;2075;51.062;6.920;2023-01-23T00:14:24;13376.31;;;-144.48;100.00
4123;BME280;2075;51.062;6.920;2023-01-23T00:17:10;13884.19;;;-144.48;100.00
4123;BME280;2075;51.062;6.920;2023-01-23T00:19:55;15662.31;;;-144.48;100.00
4123;BME280;2075;51.062;6.920;2023-01-23T00:22:43;15662.31;;;-144.48;100.00
4123;BME280;2075;51.062;6.920;2023-01-23T00:25:29;15916.41;;;-144.48;100.00
4123;BME280;2075;51.062;6.920;2023-01-23T00:28:14;17187.19;;;-144.48;100.00
4123;BME280;2075;51.062;6.920;2023-01-23T00:31:03;15154.19;;;-144.48;100.00
4123;BME280;2075;51.062;6.920;2023-01-23T00:33:52;14646.13;;;-144.48;100.00
4123;BME280;2075;51.062;6.920;2023-01-23T00:36:41;14646.13;;;-144.48;100.00
4123;BME280;2075;51.062;6.920;2023-01-23T00:39:28;14646.13;;;-144.48;100.00
4123;BME280;2075;51.062;6.920;2023-01-23T00:42:13;17187.19;;;-144.48;100.00
4123;BME280;2075;51.062;6.920;2023-01-23T00:44:59;14646.13;;;-144.48;100.00
4123;BME280;2075;51.062;6.920;2023-01-23T00:47:44;13884.19;;;-144.48;100.00
4123;BME280;2075;51.062;6.920;2023-01-23T00:50:30;13122.41;;;-144.48;100.00
4123;BME280;2075;51.062;6.920;2023-01-23T00:53:15;12868.53;;;-144.48;100.00
4123;BME280;2075;51.062;6.920;2023-01-23T00:56:02;12360.81;;;-144.48;100.00
4123;BME280;2075;51.062;6.920;2023-01-23T00:58:48;13122.41;;;-144.48;100.00
4123;BME280;2075;51.062;6.920;2023-01-23T01:01:33;12614.66;;;-144.48;100.00
4123;BME280;2075;51.062;6.920;2023-01-23T01:04:19;12868.53;;;-144.48;100.00
4123;BME280;2075;51.062;6.920;2023-01-23T01:07:04;12614.66;;;-144.48;100.00
4123;BME280;2075;51.062;6.920;2023-01-23T01:09:49;11091.88;;;-144.48;100.00
4123;BME280;2075;51.062;6.920;2023-01-23T01:12:36;9316.19;;;-144.48;100.00
4123;BME280;2075;51.062;6.920;2023-01-23T01:15:22;9569.81;;;-144.48;100.00
4123;BME280;2075;51.062;6.920;2023-01-23T01:18:07;8555.47;;;-144.48;100.00
4123;BME280;2075;51.062;6.920;2023-01-23T01:20:53;7794.94;;;-144.48;100.00
4123;BME280;2075;51.062;6.920;2023-01-23T01:23:40;7034.56;;;-144.48;100.00
4123;BME280;2075;51.062;6.920;2023-01-23T01:26:25;8555.47;;;-144.48;100.00
4123;BME280;2075;51.062;6.920;2023-01-23T01:29:12;10330.75;;;-144.48;100.00
4123;BME280;2075;51.062;6.920;2023-01-23T01:32:00;10330.75;;;-144.48;100.00
4123;BME280;2075;51.062;6.920;2023-01-23T01:34:46;9062.59;;;-144.48;100.00
4123;BME280;2075;51.062;6.920;2023-01-23T01:37:33;10077.09;;;-144.48;100.00
4123;BME280;2075;51.062;6.920;2023-01-23T01:40:20;10077.09;;;-144.48;100.00
4123;BME280;2075;51.062;6.920;2023-01-23T01:43:16;11599.41;;;-144.48;100.00
4123;BME280;2075;51.062;6.920;2023-01-23T01:46:11;12107.00;;;-144.48;100.00
4123;BME280;2075;51.062;6.920;2023-01-23T01:49:05;11599.41;;;-144.48;100.00
4123;BME280;2075;51.062;6.920;2023-01-23T01:51:54;11091.88;;;-144.48;100.00
4123;BME280;2075;51.062;6.920;2023-01-23T01:54:42;11853.19;;;-144.48;100.00
4123;BME280;2075;51.062;6.920;2023-01-23T01:57:32;10584.44;;;-144.48;100.00
4123;BME280;2075;51.062;6.920;2023-01-23T02:00:19;8555.47;;;-144.48;100.00
4123;BME280;2075;51.062;6.920;2023-01-23T02:03:06;8048.44;;;-144.48;100.00
4123;BME280;2075;51.062;6.920;2023-01-23T02:05:51;8555.47;;;-144.48;100.00
4123;BME280;2075;51.062;6.920;2023-01-23T02:08:41;10584.44;;;-144.48;100.00
4123;BME280;2075;51.062;6.920;2023-01-23T02:11:29;11091.88;;;-144.48;100.00
4123;BME280;2075;51.062;6.920;2023-01-23T02:14:15;9062.59;;;-144.48;100.00
4123;BME280;2075;51.062;6.920;2023-01-23T02:17:00;8555.47;;;-144.48;100.00
4123;BME280;2075;51.062;6.920;2023-01-23T02:19:53;9316.19;;;-144.48;100.00
4123;BME280;2075;51.062;6.920;2023-01-23T02:22:47;10330.75;;;-144.48;100.00
4123;BME280;2075;51.062;6.920;2023-01-23T02:28:38;5767.69;;;-144.48;100.00
4123;BME280;2075;51.062;6.920;2023-01-23T02:31:25;6527.75;;;-144.48;100.00
4123;BME280;2075;51.062;6.920;2023-01-23T02:34:12;6781.16;;;-144.48;100.00
4123;BME280;2075;51.062;6.920;2023-01-23T02:36:58;6781.16;;;-144.48;100.00
4123;BME280;2075;51.062;6.920;2023-01-23T02:39:44;6527.75;;;-144.48;100.00
4123;BME280;2075;51.062;6.920;2023-01-23T02:42:30;6527.75;;;-144.48;100.00
4123;BME280;2075;51.062;6.920;2023-01-23T02:45:18;5514.38;;;-144.48;100.00
4123;BME280;2075;51.062;6.920;2023-01-23T02:48:04;4754.53;;;-144.48;100.00
4123;BME280;2075;51.062;6.920;2023-01-23T02:50:51;3994.88;;;-144.48;100.00
4123;BME280;2075;51.062;6.920;2023-01-23T02:53:36;2223.00;;;-144.48;100.00
4123;BME280;2075;51.062;6.920;2023-01-23T02:56:22;1463.94;;;-144.48;100.00
4123;BME280;2075;51.062;6.920;2023-01-23T02:59:07;1210.94;;;-144.48;100.00
4123;BME280;2075;51.062;6.920;2023-01-23T03:02:12;1969.97;;;-144.48;100.00
4123;BME280;2075;51.062;6.920;2023-01-23T03:04:57;1969.97;;;-144.48;100.00
4123;BME280;2075;51.062;6.920;2023-01-23T03:07:45;1969.97;;;-144.48;100.00
4123;BME280;2075;51.062;6.920;2023-01-23T03:10:30;705.03;;;-144.48;100.00
4123;BME280;2075;51.062;6.920;2023-01-23T03:13:15;452.09;;;-144.48;100.00
4123;BME280;2075;51.062;6.920;2023-01-23T03:16:01;-812.25;;;-144.48;100.00
4123;BME280;2075;51.062;6.920;2023-01-23T03:18:47;-2834.19;;;-144.48;100.00
4123;BME280;2075;51.062;6.920;2023-01-23T03:21:36;-5107.41;;;-144.48;100.00
4123;BME280;2075;51.062;6.920;2023-01-23T03:24:23;-4602.38;;;-144.48;100.00
4123;BME280;2075;51.062;6.920;2023-01-23T03:27:08;-5359.88;;;-144.48;100.00
4123;BME280;2075;51.062;6.920;2023-01-23T03:29:58;-6117.19;;;-144.48;100.00
4123;BME280;2075;51.062;6.920;2023-01-23T03:33:08;-6117.19;;;-144.48;100.00
4123;BME280;2075;51.062;6.920;2023-01-23T03:35:55;-6117.19;;;-144.48;100.00
4123;BME280;2075;51.062;6.920;2023-01-23T03:38:41;-6874.34;;;-144.48;100.00
4123;BME280;2075;51.062;6.920;2023-01-23T03:41:47;-8135.88;;;-144.48;100.00
4123;BME280;2075;51.062;6.920;2023-01-23T03:44:32;-9144.72;;;-144.48;100.00
4123;BME280;2075;51.062;6.920;2023-01-23T03:47:17;-9649.03;;;-144.48;100.00
4123;BME280;2075;51.062;6.920;2023-01-23T03:50:05;-8640.34;;;-144.48;100.00
4123;BME280;2075;51.062;6.920;2023-01-23T03:52:55;-7379.00;;;-144.48;100.00
4123;BME280;2075;51.062;6.920;2023-01-23T03:55:43;-6621.97;;;-144.48;100.00
4123;BME280;2075;51.062;6.920;2023-01-23T03:58:29;-6117.19;;;-144.48;100.00
4123;BME280;2075;51.062;6.920;2023-01-23T04:01:14;-4602.38;;;-144.48;100.00
4123;BME280;2075;51.062;6.920;2023-01-23T04:04:01;-3339.50;;;-144.48;100.00
4123;BME280;2075;51.062;6.920;2023-01-23T04:06:47;-1317.84;;;-144.48;100.00
4123;BME280;2075;51.062;6.920;2023-01-23T04:09:35;-306.56;;;-144.48;100.00
4123;BME280;2075;51.062;6.920;2023-01-23T04:12:20;452.09;;;-144.48;100.00
4123;BME280;2075;51.062;6.920;2023-01-23T04:15:07;957.97;;;-144.48;100.00
4123;BME280;2075;51.062;6.920;2023-01-23T04:17:52;1716.94;;;-144.48;100.00
4123;BME280;2075;51.062;6.920;2023-01-23T04:20:40;1969.97;;;-144.48;100.00
4123;BME280;2075;51.062;6.920;2023-01-23T04:23:26;2223.00;;;-144.48;100.00
4123;BME280;2075;51.062;6.920;2023-01-23T04:26:12;1463.94;;;-144.48;100.00
4123;BME280;2075;51.062;6.920;2023-01-23T04:28:58;3488.53;;;-144.48;100.00
4123;BME280;2075;51.062;6.920;2023-01-23T04:31:43;4754.53;;;-144.48;100.00
4123;BME280;2075;51.062;6.920;2023-01-23T04:34:31;3741.69;;;-144.48;100.00
4123;BME280;2075;51.062;6.920;2023-01-23T04:37:17;2476.06;;;-144.48;100.00
4123;BME280;2075;51.062;6.920;2023-01-23T04:40:04;957.97;;;-144.48;100.00
4123;BME280;2075;51.062;6.920;2023-01-23T04:43:00;-306.56;;;-144.48;100.00
4123;BME280;2075;51.062;6.920;2023-01-23T04:45:58;-559.44;;;-144.48;100.00
4123;BME280;2075;51.062;6.920;2023-01-23T04:49:09;-1570.63;;;-144.48;100.00
4123;BME280;2075;51.062;6.920;2023-01-23T04:51:55;-4097.28;;;-144.48;100.00
4123;BME280;2075;51.062;6.920;2023-01-23T04:54:42;-6369.59;;;-144.48;100.00
4123;BME280;2075;51.062;6.920;2023-01-23T04:57:27;-7631.31;;;-144.48;100.00
4123;BME280;2075;51.062;6.920;2023-01-23T05:00:24;-8640.34;;;-144.48;100.00
4123;BME280;2075;51.062;6.920;2023-01-23T05:03:12;-9144.72;;;-144.48;100.00
4123;BME280;2075;51.062;6.920;2023-01-23T05:06:02;-10153.28;;;-144.48;100.00
4123;BME280;2075;51.062;6.920;2023-01-23T05:08:47;-10909.50;;;-144.48;100.00
4123;BME280;2075;51.062;6.920;2023-01-23T05:11:44;-11161.53;;;-144.48;100.00
4123;BME280;2075;51.062;6.920;2023-01-23T05:14:31;-11665.53;;;-144.48;100.00
4123;BME280;2075;51.062;6.920;2023-01-23T05:17:18;-11665.53;;;-144.48;100.00
4123;BME280;2075;51.062;6.920;2023-01-23T05:20:10;-11161.53;;;-144.48;100.00
4123;BME280;2075;51.062;6.920;2023-01-23T05:22:56;-10657.44;;;-144.48;100.00
4123;BME280;2075;51.062;6.920;2023-01-23T05:25:52;-10909.50;;;-144.48;100.00
4123;BME280;2075;51.062;6.920;2023-01-23T05:28:38;-10657.44;;;-144.48;100.00
4123;BME280;2075;51.062;6.920;2023-01-23T05:31:23;-10909.50;;;-144.48;100.00
4123;BME280;2075;51.062;6.920;2023-01-23T05:34:30;-11413.53;;;-144.48;100.00
4123;BME280;2075;51.062;6.920;2023-01-23T05:37:26;-11665.53;;;-144.48;100.00
4123;BME280;2075;51.062;6.920;2023-01-23T05:40:19;-11665.53;;;-144.48;100.00
4123;BME280;2075;51.062;6.920;2023-01-23T05:43:43;-11665.53;;;-144.48;100.00
4123;BME280;2075;51.062;6.920;2023-01-23T05:46:57;-11665.53;;;-144.48;100.00
4123;BME280;2075;51.062;6.920;2023-01-23T05:49:47;-11665.53;;;-144.48;100.00
4123;BME280;2075;51.062;6.920;2023-01-23T05:52:33;-11667.00;;;-144.48;100.00
4123;BME280;2075;51.062;6.920;2023-01-23T05:55:19;-11667.00;;;-144.48;100.00
4123;BME280;2075;51.062;6.920;2023-01-23T05:58:08;-11667.00;;;-144.48;100.00
4123;BME280;2075;51.062;6.920;2023-01-23T06:01:20;-11413.53;;;-144.48;100.00
4123;BME280;2075;51.062;6.920;2023-01-23T06:04:38;-11413.53;;;-144.48;100.00
4123;BME280;2075;51.062;6.920;2023-01-23T06:07:36;-11413.53;;;-144.48;100.00
4123;BME280;2075;51.062;6.920;2023-01-23T06:10:24;-11665.53;;;-144.48;100.00
4123;BME280;2075;51.062;6.920;2023-01-23T06:13:10;-11665.53;;;-144.48;100.00
4123;BME280;2075;51.062;6.920;2023-01-23T06:15:57;-11665.53;;;-144.48;100.00
4123;BME280;2075;51.062;6.920;2023-01-23T06:18:43;-11667.00;;;-144.48;100.00
4123;BME280;2075;51.062;6.920;2023-01-23T06:21:29;-11667.00;;;-144.48;100.00
4123;BME280;2075;51.062;6.920;2023-01-23T06:24:17;-11667.00;;;-144.48;100.00
4123;BME280;2075;51.062;6.920;2023-01-23T06:27:04;-11667.00;;;-144.48;100.00
4123;BME280;2075;51.062;6.920;2023-01-23T06:29:52;-11667.00;;;-144.48;100.00
4123;BME280;2075;51.062;6.920;2023-01-23T06:32:37;-11667.00;;;-144.48;100.00
4123;BME280;2075;51.062;6.920;2023-01-23T06:35:25;-11667.00;;;-144.48;100.00
4123;BME280;2075;51.062;6.920;2023-01-23T06:38:10;-11667.00;;;-144.48;100.00
4123;BME280;2075;51.062;6.920;2023-01-23T06:40:57;-11667.00;;;-144.48;100.00
4123;BME280;2075;51.062;6.920;2023-01-23T06:43:47;-11667.00;;;-144.48;100.00
4123;BME280;2075;51.062;6.920;2023-01-23T06:46:37;-11667.00;;;-144.48;100.00
4123;BME280;2075;51.062;6.920;2023-01-23T06:49:23;-11665.53;;;-144.48;100.00
4123;BME280;2075;51.062;6.920;2023-01-23T06:52:09;-10909.50;;;-144.48;100.00
4123;BME280;2075;51.062;6.920;2023-01-23T06:54:55;-9649.03;;;-144.48;100.00
4123;BME280;2075;51.062;6.920;2023-01-23T06:57:42;-7126.69;;;-144.48;100.00
4123;BME280;2075;51.062;6.920;2023-01-23T07:00:27;-5107.41;;;-144.48;100.00
4123;BME280;2075;51.062;6.920;2023-01-23T07:03:16;-2328.84;;;-144.48;100.00
4123;BME280;2075;51.062;6.920;2023-01-23T07:06:01;-306.56;;;-144.48;100.00
4123;BME280;2075;51.062;6.920;2023-01-23T07:08:49;2729.16;;;-144.48;100.00
4123;BME280;2075;51.062;6.920;2023-01-23T07:11:42;4754.53;;;-144.48;100.00
4123;BME280;2075;51.062;6.920;2023-01-23T07:14:32;5007.78;;;-144.48;100.00
4123;BME280;2075;51.062;6.920;2023-01-23T07:17:17;4248.06;;;-144.48;100.00
4123;BME280;2075;51.062;6.920;2023-01-23T07:20:03;5007.78;;;-144.48;100.00
4123;BME280;2075;51.062;6.920;2023-01-23T07:22:50;6527.75;;;-144.48;100.00
4123;BME280;2075;51.062;6.920;2023-01-23T07:25:36;6274.38;;;-144.48;100.00
4123;BME280;2075;51.062;6.920;2023-01-23T07:28:21;7034.56;;;-144.48;100.00
4123;BME280;2075;51.062;6.920;2023-01-23T07:31:08;7288.00;;;-144.48;100.00
4123;BME280;2075;51.062;6.920;2023-01-23T07:33:54;9316.19;;;-144.48;100.00
4123;BME280;2075;51.062;6.920;2023-01-23T07:36:40;11345.63;;;-144.48;100.00
4123;BME280;2075;51.062;6.920;2023-01-23T07:39:25;10838.16;;;-144.48;100.00
4123;BME280;2075;51.062;6.920;2023-01-23T07:42:11;10077.09;;;-144.48;100.00
4123;BME280;2075;51.062;6.920;2023-01-23T07:44:58;12107.00;;;-144.48;100.00
4123;BME280;2075;51.062;6.920;2023-01-23T07:47:45;12107.00;;;-144.48;100.00
4123;BME280;2075;51.062;6.920;2023-01-23T07:50:31;10584.44;;;-144.48;100.00
4123;BME280;2075;51.062;6.920;2023-01-23T07:53:17;9823.44;;;-144.48;100.00
4123;BME280;2075;51.062;6.920;2023-01-23T07:56:03;8555.47;;;-144.48;100.00
4123;BME280;2075;51.062;6.920;2023-01-23T07:58:49;9823.44;;;-144.48;100.00
4123;BME280;2075;51.062;6.920;2023-01-23T08:01:35;10077.09;;;-144.48;100.00
4123;BME280;2075;51.062;6.920;2023-01-23T08:04:22;9823.44;;;-144.48;100.00
4123;BME280;2075;51.062;6.920;2023-01-23T08:07:07;9062.59;;;-144.48;100.00
4123;BME280;2075;51.062;6.920;2023-01-23T08:09:53;10077.09;;;-144.48;100.00
4123;BME280;2075;51.062;6.920;2023-01-23T08:12:39;11345.63;;;-144.48;100.00
4123;BME280;2075;51.062;6.920;2023-01-23T08:15:24;10077.09;;;-144.48;100.00
4123;BME280;2075;51.062;6.920;2023-01-23T08:18:09;9062.59;;;-144.48;100.00
4123;BME280;2075;51.062;6.920;2023-01-23T08:20:57;10330.75;;;-144.48;100.00
4123;BME280;2075;51.062;6.920;2023-01-23T08:23:43;10584.44;;;-144.48;100.00
4123;BME280;2075;51.062;6.920;2023-01-23T08:26:29;12614.66;;;-144.48;100.00
4123;BME280;2075;51.062;6.920;2023-01-23T08:29:14;13884.19;;;-144.48;100.00
4123;BME280;2075;51.062;6.920;2023-01-23T08:32:00;14138.13;;;-144.48;100.00
4123;BME280;2075;51.062;6.920;2023-01-23T08:34:45;14900.13;;;-144.48;100.00
4123;BME280;2075;51.062;6.920;2023-01-23T08:37:32;14392.13;;;-144.48;100.00
4123;BME280;2075;51.062;6.920;2023-01-23T08:40:17;14138.13;;;-144.48;100.00
4123;BME280;2075;51.062;6.920;2023-01-23T08:43:03;14392.13;;;-144.48;100.00
4123;BME280;2075;51.062;6.920;2023-01-23T08:45:49;14392.13;;;-144.48;100.00
4123;BME280;2075;51.062;6.920;2023-01-23T08:48:35;15916.41;;;-144.48;100.00
4123;BME280;2075;51.062;6.920;2023-01-23T08:51:21;17187.19;;;-144.48;100.00
4123;BME280;2075;51.062;6.920;2023-01-23T08:54:08;19221.47;;;-144.48;100.00
4123;BME280;2075;51.062;6.920;2023-01-23T08:56:53;20493.53;;;-144.48;100.00
4123;BME280;2075;51.062;6.920;2023-01-23T08:59:39;21002.47;;;-144.48;100.00
4123;BME280;2075;51.062;6.920;2023-01-23T09:02:25;21766.06;;;-144.48;100.00
4123;BME280;2075;51.062;6.920;2023-01-23T09:05:11;21511.53;;;-144.48;100.00
4123;BME280;2075;51.062;6.920;2023-01-23T09:07:57;21002.47;;;-144.48;100.00
4123;BME280;2075;51.062;6.920;2023-01-23T09:10:44;19984.66;;;-144.48;100.00
4123;BME280;2075;51.062;6.920;2023-01-23T09:13:30;20493.53;;;-144.48;100.00
4123;BME280;2075;51.062;6.920;2023-01-23T09:16:16;25076.94;;;-144.48;100.00
4123;BME280;2075;51.062;6.920;2023-01-23T09:19:01;26606.16;;;-144.48;100.00
4123;BME280;2075;51.062;6.920;2023-01-23T09:21:46;30942.75;;;-144.48;100.00
4123;BME280;2075;51.062;6.920;2023-01-23T09:24:32;30177.06;;;-144.48;100.00
4123;BME280;2075;51.062;6.920;2023-01-23T09:27:19;32219.28;;;-144.48;100.00
4123;BME280;2075;51.062;6.920;2023-01-23T09:30:06;35029.38;;;-144.48;100.00
4123;BME280;2075;51.062;6.920;2023-01-23T09:32:52;37841.84;;;-144.48;100.00
4123;BME280;2075;51.062;6.920;2023-01-23T09:35:37;37330.31;;;-144.48;100.00
4123;BME280;2075;51.062;6.920;2023-01-23T09:38:23;35796.19;;;-144.48;100.00
4123;BME280;2075;51.062;6.920;2023-01-23T09:41:15;37586.06;;;-144.48;100.00
4123;BME280;2075;51.062;6.920;2023-01-23T09:44:04;39888.75;;;-144.48;100.00
4123;BME280;2075;51.062;6.920;2023-01-23T09:46:55;38609.28;;;-144.48;100.00
4123;BME280;2075;51.062;6.920;2023-01-23T09:49:49;38097.66;;;-144.48;100.00
4123;BME280;2075;51.062;6.920;2023-01-23T09:52:43;42961.47;;;-144.48;100.00
4123;BME280;2075;51.062;6.920;2023-01-23T09:55:38;45011.50;;;-144.48;100.00
4123;BME280;2075;51.062;6.920;2023-01-23T09:58:27;47062.78;;;-144.48;100.00
4123;BME280;2075;51.062;6.920;2023-01-23T10:01:16;51425.88;;;-144.48;100.00
4123;BME280;2075;51.062;6.920;2023-01-23T10:04:01;55023.25;;;-144.48;100.00
4123;BME280;2075;51.062;6.920;2023-01-23T10:07:05;59654.09;;;-144.48;100.00
4123;BME280;2075;51.062;6.920;2023-01-23T10:10:06;59396.66;;;-144.48;100.00
4123;BME280;2075;51.062;6.920;2023-01-23T10:13:02;64291.22;;;-144.48;100.00
4123;BME280;2075;51.062;6.920;2023-01-23T10:16:07;67902.25;;;-144.48;100.00
4123;BME280;2075;51.062;6.920;2023-01-23T10:19:07;66096.25;;;-144.48;100.00
4123;BME280;2075;51.062;6.920;2023-01-23T10:22:02;68676.53;;;-144.48;100.00
4123;BME280;2075;51.062;6.920;2023-01-23T10:24:49;70483.91;;;-144.48;100.00
4123;BME280;2075;51.062;6.920;2023-01-23T10:27:38;66096.25;;;-144.48;100.00
4123;BME280;2075;51.062;6.920;2023-01-23T10:30:29;71716.94;;;-144.48;100.00
4123;BME280;2075;51.062;6.920;2023-01-23T10:33:17;70338.63;;;-144.48;100.00
4123;BME280;2075;51.062;6.920;2023-01-23T10:36:12;69451.00;;;-144.48;100.00
4123;BME280;2075;51.062;6.920;2023-01-23T10:39:03;71872.34;;;-144.48;100.00
4123;BME280;2075;51.062;6.920;2023-01-23T10:41:51;74990.31;;;-144.48;100.00
4123;BME280;2075;51.062;6.920;2023-01-23T10:44:36;79957.88;;;-144.48;100.00
4123;BME280;2075;51.062;6.920;2023-01-23T10:47:27;83494.31;;;-144.48;100.00
4123;BME280;2075;51.062;6.920;2023-01-23T10:50:15;84306.56;;;-144.48;100.00
4123;BME280;2075;51.062;6.920;2023-01-23T10:53:06;85603.34;;;-144.48;100.00
4123;BME280;2075;51.062;6.920;2023-01-23T10:55:56;87160.09;;;-144.48;100.00
4123;BME280;2075;51.062;6.920;2023-01-23T10:58:42;87373.00;;;-144.48;100.00
4123;BME280;2075;51.062;6.920;2023-01-23T11:01:29;90087.00;;;-144.48;100.00
4123;BME280;2075;51.062;6.920;2023-01-23T11:04:18;91700.59;;;-144.48;100.00
4123;BME280;2075;51.062;6.920;2023-01-23T11:07:07;92636.63;;;-144.48;100.00
4123;BME280;2075;51.062;6.920;2023-01-23T11:09:58;93589.16;;;-144.48;100.00
4123;BME280;2075;51.062;6.920;2023-01-23T11:12:46;93680.56;;;-144.48;100.00
4123;BME280;2075;51.062;6.920;2023-01-23T11:15:33;94027.94;;;-144.48;100.00
4123;BME280;2075;51.062;6.920;2023-01-23T11:18:30;94227.03;;;-144.48;100.00
4123;BME280;2075;51.062;6.920;2023-01-23T11:21:20;94554.16;;;-144.48;100.00
4123;BME280;2075;51.062;6.920;2023-01-23T11:24:19;94649.63;;;-144.48;94.58
4123;BME280;2075;51.062;6.920;2023-01-23T11:27:15;94830.47;;;-144.48;90.85
4123;BME280;2075;51.062;6.920;2023-01-23T11:30:37;94635.41;;;-144.48;92.69
4123;BME280;2075;51.062;6.920;2023-01-23T11:33:37;94891.44;;;-144.48;89.72
4123;BME280;2075;51.062;6.920;2023-01-23T11:36:49;94901.59;;;-144.48;88.19
4123;BME280;2075;51.062;6.920;2023-01-23T11:39:46;94946.31;;;-144.48;87.03
4123;BME280;2075;51.062;6.920;2023-01-23T11:42:37;94984.91;;;-144.48;85.27
4123;BME280;2075;51.062;6.920;2023-01-23T11:45:36;94926.00;;;-144.48;86.33
4123;BME280;2075;51.062;6.920;2023-01-23T11:48:34;94936.16;;;-144.48;86.09
4123;BME280;2075;51.062;6.920;2023-01-23T11:51:30;94952.41;;;-144.48;86.09
4123;BME280;2075;51.062;6.920;2023-01-23T11:54:35;94960.53;;;-144.48;86.05
4123;BME280;2075;51.062;6.920;2023-01-23T11:57:31;94919.91;;;-144.48;86.21
4123;BME280;2075;51.062;6.920;2023-01-23T12:00:28;94960.53;;;-144.48;85.07
4123;BME280;2075;51.062;6.920;2023-01-23T12:03:35;94978.81;;;-144.48;85.96
4123;BME280;2075;51.062;6.920;2023-01-23T12:06:46;94956.47;;;-144.48;86.10
4123;BME280;2075;51.062;6.920;2023-01-23T12:09:42;94956.47;;;-144.48;85.13
4123;BME280;2075;51.062;6.920;2023-01-23T12:12:42;95001.19;;;-144.48;84.68
4123;BME280;2075;51.062;6.920;2023-01-23T12:15:38;94952.41;;;-144.48;83.83
4123;BME280;2075;51.062;6.920;2023-01-23T12:18:38;94954.44;;;-144.48;81.87
4123;BME280;2075;51.062;6.920;2023-01-23T12:21:32;94984.91;;;-144.48;80.41
4123;BME280;2075;51.062;6.920;2023-01-23T12:24:32;95009.31;;;-144.48;79.43
4123;BME280;2075;51.062;6.920;2023-01-23T12:27:27;95090.59;;;-144.48;77.95
4123;BME280;2075;51.062;6.920;2023-01-23T12:30:48;95009.31;;;-144.48;77.91
4123;BME280;2075;51.062;6.920;2023-01-23T12:33:49;94980.84;;;-144.48;79.32
4123;BME280;2075;51.062;6.920;2023-01-23T12:37:04;95054.00;;;-144.48;80.20
4123;BME280;2075;51.062;6.920;2023-01-23T12:40:09;94741.06;;;-144.48;81.30
4123;BME280;2075;51.062;6.920;2023-01-23T12:43:00;95031.66;;;-144.48;82.52
4123;BME280;2075;51.062;6.920;2023-01-23T12:45:55;95037.75;;;-144.48;78.81
4123;BME280;2075;51.062;6.920;2023-01-23T12:48:45;95025.56;;;-144.48;80.00
4123;BME280;2075;51.062;6.920;2023-01-23T12:51:35;95021.50;;;-144.48;80.64
4123;BME280;2075;51.062;6.920;2023-01-23T12:54:29;95007.28;;;-144.48;81.00
4123;BME280;2075;51.062;6.920;2023-01-23T12:57:18;95035.72;;;-144.48;82.26
4123;BME280;2075;51.062;6.920;2023-01-23T13:00:45;95013.38;;;-144.48;82.44
4123;BME280;2075;51.062;6.920;2023-01-23T13:03:46;95049.94;;;-144.48;82.94
4123;BME280;2075;51.062;6.920;2023-01-23T13:06:47;95031.66;;;-144.48;84.09
4123;BME280;2075;51.062;6.920;2023-01-23T13:09:48;95041.81;;;-144.48;84.30
4123;BME280;2075;51.062;6.920;2023-01-23T13:12:35;95003.22;;;-144.48;85.22
4123;BME280;2075;51.062;6.920;2023-01-23T13:15:30;95021.50;;;-144.48;85.60
4123;BME280;2075;51.062;6.920;2023-01-23T13:18:21;94995.06;;;-144.48;84.78
4123;BME280;2075;51.062;6.920;2023-01-23T13:21:12;95009.31;;;-144.48;84.88
4123;BME280;2075;51.062;6.920;2023-01-23T13:24:42;95017.44;;;-144.48;84.32
4123;BME280;2075;51.062;6.920;2023-01-23T13:27:50;95027.59;;;-144.48;84.25
4123;BME280;2075;51.062;6.920;2023-01-23T13:30:39;95027.59;;;-144.48;84.39
4123;BME280;2075;51.062;6.920;2023-01-23T13:33:49;95027.59;;;-144.48;85.10
4123;BME280;2075;51.062;6.920;2023-01-23T13:36:37;95009.31;;;-144.48;86.87
4123;BME280;2075;51.062;6.920;2023-01-23T13:39:25;94978.81;;;-144.48;86.54
4123;BME280;2075;51.062;6.920;2023-01-23T13:42:38;95039.78;;;-144.48;87.29
4123;BME280;2075;51.062;6.920;2023-01-23T13:45:28;94991.00;;;-144.48;87.51
4123;BME280;2075;51.062;6.920;2023-01-23T13:48:41;94995.06;;;-144.48;86.79
4123;BME280;2075;51.062;6.920;2023-01-23T13:51:48;94980.84;;;-144.48;87.35
4123;BME280;2075;51.062;6.920;2023-01-23T13:54:34;94991.00;;;-144.48;87.17
4123;BME280;2075;51.062;6.920;2023-01-23T13:57:37;95143.44;;;-144.48;86.39
4123;BME280;2075;51.062;6.920;2023-01-23T14:00:23;95029.63;;;-144.48;86.76
4123;BME280;2075;51.062;6.920;2023-01-23T14:03:15;95011.34;;;-144.48;87.10
4123;BME280;2075;51.062;6.920;2023-01-23T14:06:30;94923.97;;;-144.48;87.47
4123;BME280;2075;51.062;6.920;2023-01-23T14:09:23;95011.34;;;-144.48;86.42
4123;BME280;2075;51.062;6.920;2023-01-23T14:12:08;94988.97;;;-144.48;86.36
4123;BME280;2075;51.062;6.920;2023-01-23T14:14:56;95009.31;;;-144.48;86.65
4123;BME280;2075;51.062;6.920;2023-01-23T14:18:00;94944.28;;;-144.48;88.44
4123;BME280;2075;51.062;6.920;2023-01-23T14:20:47;94834.53;;;-144.48;90.05
4123;BME280;2075;51.062;6.920;2023-01-23T14:23:36;94899.56;;;-144.48;90.13
4123;BME280;2075;51.062;6.920;2023-01-23T14:26:26;94808.13;;;-144.48;91.43
4123;BME280;2075;51.062;6.920;2023-01-23T14:29:19;94761.41;;;-144.48;92.21
4123;BME280;2075;51.062;6.920;2023-01-23T14:32:20;94763.44;;;-144.48;92.69
4123;BME280;2075;51.062;6.920;2023-01-23T14:35:15;94645.56;;;-144.48;93.43
4123;BME280;2075;51.062;6.920;2023-01-23T14:38:03;94594.78;;;-144.48;93.20
4123;BME280;2075;51.062;6.920;2023-01-23T14:40:49;94647.59;;;-144.48;92.78
4123;BME280;2075;51.062;6.920;2023-01-23T14:43:36;94588.69;;;-144.48;93.06
4123;BME280;2075;51.062;6.920;2023-01-23T14:46:32;94643.53;;;-144.48;93.05
4123;BME280;2075;51.062;6.920;2023-01-23T14:49:23;94560.25;;;-144.48;93.31
4123;BME280;2075;51.062;6.920;2023-01-23T14:52:20;94472.88;;;-144.48;93.94
4123;BME280;2075;51.062;6.920;2023-01-23T14:55:19;94472.88;;;-144.48;94.13
4123;BME280;2075;51.062;6.920;2023-01-23T14:58:05;94397.69;;;-144.48;94.49